createdAt,value
2018-03-29T00:00:42.146Z,0
2018-03-29T00:01:32.348Z,-0.1
2018-03-29T00:02:22.864Z,-0.1
2018-03-29T00:03:12.545Z,-0.2
2018-03-29T00:04:03.009Z,-0.3
2018-03-29T00:04:52.071Z,-0.3
2018-03-29T00:05:41.944Z,-0.3
2018-03-29T00:06:33.167Z,-0.3
2018-03-29T00:07:23.237Z,-0.3
2018-03-29T00:08:12.996Z,-0.3
2018-03-29T00:09:02.956Z,-0.3
2018-03-29T00:09:53.128Z,-0.3
2018-03-29T00:10:43.794Z,-0.3
2018-03-29T00:11:33.044Z,-0.2
2018-03-29T00:12:22.886Z,-0.3
2018-03-29T00:13:13.454Z,-0.2
2018-03-29T00:14:03.705Z,-0.1
2018-03-29T00:14:54.037Z,-0.1
2018-03-29T00:15:43.913Z,-0.1
2018-03-29T00:16:33.967Z,-0.1
2018-03-29T00:17:23.938Z,-0.2
2018-03-29T00:18:13.497Z,-0.2
2018-03-29T00:19:04.167Z,-0.3
2018-03-29T00:19:53.921Z,-0.3
2018-03-29T00:20:44.172Z,-0.3
2018-03-29T00:21:33.927Z,-0.3
2018-03-29T00:22:24.317Z,-0.4
2018-03-29T00:23:14.049Z,-0.4
2018-03-29T00:24:03.816Z,-0.4
2018-03-29T00:24:54.266Z,-0.4
2018-03-29T00:25:44.516Z,-0.4
2018-03-29T00:26:34.076Z,-0.5
2018-03-29T00:27:23.866Z,-0.6
2018-03-29T00:28:13.924Z,-0.6
2018-03-29T00:29:04.261Z,-0.6
2018-03-29T00:29:54.331Z,-0.6
2018-03-29T00:30:44.371Z,-0.6
2018-03-29T00:31:34.138Z,-0.5
2018-03-29T00:32:24.501Z,-0.6
2018-03-29T00:33:15.296Z,-0.6
2018-03-29T00:34:05.158Z,-0.6
2018-03-29T00:34:55.430Z,-0.7
2018-03-29T00:35:44.623Z,-0.7
2018-03-29T00:36:35.290Z,-0.6
2018-03-29T00:37:25.628Z,-0.6
2018-03-29T00:38:15.378Z,-0.5
2018-03-29T00:39:05.417Z,-0.4
2018-03-29T00:39:55.202Z,-0.5
2018-03-29T00:40:45.840Z,-0.6
2018-03-29T00:41:35.890Z,-0.6
2018-03-29T00:42:25.958Z,-0.6
2018-03-29T00:43:15.987Z,-0.6
2018-03-29T00:44:05.782Z,-0.6
2018-03-29T00:44:56.125Z,-0.6
2018-03-29T00:45:45.664Z,-0.6
2018-03-29T00:46:35.670Z,-0.7
2018-03-29T00:47:26.019Z,-0.8
2018-03-29T00:48:16.366Z,-0.8
2018-03-29T00:49:05.861Z,-0.9
2018-03-29T00:49:55.947Z,-0.9
2018-03-29T00:50:46.244Z,-0.8
2018-03-29T00:51:36.679Z,-0.7
2018-03-29T00:52:26.370Z,-0.6
2018-03-29T00:53:16.730Z,-0.6
2018-03-29T00:54:06.187Z,-0.6
2018-03-29T00:54:56.832Z,-0.6
2018-03-29T00:55:46.874Z,-0.6
2018-03-29T00:56:36.661Z,-0.5
2018-03-29T00:57:26.704Z,-0.5
2018-03-29T00:58:17.040Z,-0.4
2018-03-29T00:59:06.843Z,-0.5
2018-03-29T00:59:56.596Z,-0.6
2018-03-29T01:00:47.222Z,-0.6
2018-03-29T01:01:37.064Z,-0.6
2018-03-29T01:02:27.352Z,-0.6
2018-03-29T01:03:17.141Z,-0.6
2018-03-29T01:04:07.184Z,-0.7
2018-03-29T01:04:57.515Z,-0.7
2018-03-29T01:05:47.574Z,-0.7
2018-03-29T01:06:37.634Z,-0.7
2018-03-29T01:07:27.415Z,-0.7
2018-03-29T01:08:17.821Z,-0.7
2018-03-29T01:09:07.816Z,-0.8
2018-03-29T01:09:57.599Z,-0.8
2018-03-29T01:10:47.659Z,-0.8
2018-03-29T01:11:37.724Z,-0.8
2018-03-29T01:12:28.046Z,-0.9
2018-03-29T01:13:18.114Z,-0.8
2018-03-29T01:14:07.890Z,-0.9
2018-03-29T01:14:57.941Z,-0.9
2018-03-29T01:15:48.013Z,-0.9
2018-03-29T01:16:38.077Z,-0.9
2018-03-29T01:17:28.384Z,-0.9
2018-03-29T01:18:18.187Z,-0.9
2018-03-29T01:20:48.333Z,-0.9
2018-03-29T01:21:38.422Z,-0.9
2018-03-29T01:22:28.495Z,-0.8
2018-03-29T01:23:18.233Z,-0.8
2018-03-29T01:24:08.854Z,-0.8
2018-03-29T01:25:12.426Z,-0.8
2018-03-29T01:25:48.129Z,-0.9
2018-03-29T01:31:38.842Z,-0.9
2018-03-29T01:32:29.178Z,-0.9
2018-03-29T01:34:59.162Z,-1
2018-03-29T01:35:48.839Z,-1
2018-03-29T01:36:38.687Z,-1
2018-03-29T01:37:28.734Z,-1
2018-03-29T01:38:19.377Z,-1
2018-03-29T01:40:49.575Z,-0.9
2018-03-29T01:41:39.015Z,-0.9
2018-03-29T01:44:59.571Z,-0.9
2018-03-29T01:45:49.599Z,-0.8
2018-03-29T01:46:39.897Z,-0.8
2018-03-29T01:47:29.954Z,-0.8
2018-03-29T01:48:19.589Z,-0.8
2018-03-29T01:49:10.621Z,-0.7
2018-03-29T01:50:00.111Z,-0.7
2018-03-29T01:50:50.756Z,-0.7
2018-03-29T01:51:40.228Z,-0.7
2018-03-29T01:52:30.006Z,-0.7
2018-03-29T01:53:20.346Z,-0.8
2018-03-29T01:54:10.676Z,-0.8
2018-03-29T01:55:00.171Z,-0.9
2018-03-29T01:55:50.808Z,-0.9
2018-03-29T01:56:40.641Z,-0.9
2018-03-29T01:58:20.689Z,-0.9
2018-03-29T01:59:10.255Z,-0.9
2018-03-29T02:00:00.592Z,-0.8
2018-03-29T02:00:50.657Z,-0.8
2018-03-29T02:01:40.996Z,-0.8
2018-03-29T02:02:30.491Z,-0.8
2018-03-29T02:03:20.550Z,-0.9
2018-03-29T02:04:10.320Z,-0.9
2018-03-29T02:05:50.909Z,-1
2018-03-29T02:07:31.626Z,-0.9
2018-03-29T02:08:20.908Z,-0.9
2018-03-29T02:09:11.248Z,-0.9
2018-03-29T02:10:01.494Z,-0.9
2018-03-29T02:10:51.868Z,-1
2018-03-29T02:11:41.923Z,-1.1
2018-03-29T02:12:30.983Z,-1.3
2018-03-29T02:13:21.841Z,-1.3
2018-03-29T02:14:12.182Z,-1.5
2018-03-29T02:15:01.584Z,-1.6
2018-03-29T02:15:51.341Z,-1.6
2018-03-29T02:16:42.074Z,-1.6
2018-03-29T02:17:32.315Z,-1.6
2018-03-29T02:18:22.385Z,-1.6
2018-03-29T02:19:12.445Z,-1.6
2018-03-29T02:20:02.194Z,-1.6
2018-03-29T02:20:52.549Z,-1.6
2018-03-29T02:21:42.124Z,-1.7
2018-03-29T02:22:32.374Z,-1.6
2018-03-29T02:23:22.732Z,-1.6
2018-03-29T02:24:11.916Z,-1.6
2018-03-29T02:25:03.145Z,-1.6
2018-03-29T02:25:52.213Z,-1.6
2018-03-29T02:26:42.696Z,-1.6
2018-03-29T02:27:33.022Z,-1.6
2018-03-29T02:28:22.799Z,-1.6
2018-03-29T02:29:12.358Z,-1.6
2018-03-29T02:30:02.617Z,-1.6
2018-03-29T02:30:53.266Z,-1.6
2018-03-29T02:31:42.238Z,-1.6
2018-03-29T02:32:33.366Z,-1.6
2018-03-29T02:33:23.149Z,-1.6
2018-03-29T02:34:13.204Z,-1.5
2018-03-29T02:35:03.297Z,-1.5
2018-03-29T02:35:53.028Z,-1.6
2018-03-29T02:36:43.393Z,-1.7
2018-03-29T02:37:33.755Z,-1.8
2018-03-29T02:38:23.487Z,-1.7
2018-03-29T02:39:13.530Z,-1.8
2018-03-29T02:40:03.716Z,-1.8
2018-03-29T02:40:53.660Z,-1.8
2018-03-29T02:41:44.322Z,-1.8
2018-03-29T02:42:33.294Z,-1.9
2018-03-29T02:43:23.840Z,-1.9
2018-03-29T02:44:13.503Z,-1.9
2018-03-29T02:45:03.156Z,-1.9
2018-03-29T02:45:53.998Z,-1.8
2018-03-29T02:46:43.670Z,-1.8
2018-03-29T02:47:34.406Z,-1.8
2018-03-29T02:48:24.017Z,-1.8
2018-03-29T02:49:13.838Z,-1.8
2018-03-29T02:50:04.318Z,-1.8
2018-03-29T02:50:54.453Z,-1.8
2018-03-29T02:51:44.228Z,-1.8
2018-03-29T02:52:34.885Z,-1.8
2018-03-29T02:53:24.332Z,-1.8
2018-03-29T02:54:14.195Z,-1.8
2018-03-29T02:55:05.050Z,-1.8
2018-03-29T02:55:54.518Z,-1.7
2018-03-29T02:56:44.449Z,-1.7
2018-03-29T02:57:34.515Z,-1.8
2018-03-29T02:58:25.189Z,-1.8
2018-03-29T02:59:14.622Z,-1.7
2018-03-29T03:00:04.727Z,-1.8
2018-03-29T03:00:54.564Z,-1.8
2018-03-29T03:01:45.120Z,-1.8
2018-03-29T03:02:35.465Z,-1.8
2018-03-29T03:03:25.322Z,-1.9
2018-03-29T03:04:14.985Z,-1.9
2018-03-29T03:05:05.156Z,-1.9
2018-03-29T03:05:55.715Z,-1.9
2018-03-29T03:06:45.180Z,-1.9
2018-03-29T03:07:35.902Z,-1.9
2018-03-29T03:08:25.938Z,-1.9
2018-03-29T03:09:15.667Z,-1.9
2018-03-29T03:10:05.401Z,-2
2018-03-29T03:10:56.107Z,-1.9
2018-03-29T03:11:46.027Z,-1.9
2018-03-29T03:12:35.674Z,-1.9
2018-03-29T03:13:26.517Z,-1.8
2018-03-29T03:14:16.098Z,-1.8
2018-03-29T03:15:05.749Z,-1.8
2018-03-29T03:15:55.898Z,-1.8
2018-03-29T03:16:46.148Z,-1.8
2018-03-29T03:17:36.305Z,-1.8
2018-03-29T03:18:25.977Z,-1.9
2018-03-29T03:19:16.606Z,-1.9
2018-03-29T03:20:05.988Z,-1.9
2018-03-29T03:20:55.853Z,-1.8
2018-03-29T03:21:46.244Z,-1.8
2018-03-29T03:22:36.273Z,-1.8
2018-03-29T03:23:26.425Z,-1.8
2018-03-29T03:24:16.462Z,-1.8
2018-03-29T03:25:07.083Z,-1.8
2018-03-29T03:25:56.589Z,-1.8
2018-03-29T03:26:47.145Z,-1.8
2018-03-29T03:27:37.062Z,-1.7
2018-03-29T03:28:26.670Z,-1.7
2018-03-29T03:29:16.453Z,-1.7
2018-03-29T03:30:07.088Z,-1.7
2018-03-29T03:30:56.662Z,-1.7
2018-03-29T03:31:47.802Z,-1.8
2018-03-29T03:32:37.168Z,-1.9
2018-03-29T03:33:27.595Z,-1.9
2018-03-29T03:34:17.378Z,-1.9
2018-03-29T03:35:07.342Z,-1.9
2018-03-29T03:35:57.493Z,-1.9
2018-03-29T03:36:47.258Z,-1.9
2018-03-29T03:37:37.718Z,-1.9
2018-03-29T03:38:27.967Z,-2
2018-03-29T03:39:17.417Z,-2
2018-03-29T03:40:07.529Z,-2
2018-03-29T03:40:58.170Z,-2
2018-03-29T03:41:47.506Z,-2
2018-03-29T03:42:37.672Z,-2
2018-03-29T03:43:28.295Z,-1.9
2018-03-29T03:44:18.067Z,-1.9
2018-03-29T03:45:08.110Z,-1.9
2018-03-29T03:45:57.500Z,-1.9
2018-03-29T03:46:48.810Z,-1.9
2018-03-29T03:47:38.292Z,-1.9
2018-03-29T03:48:28.629Z,-2
2018-03-29T03:49:18.692Z,-2
2018-03-29T03:50:09.057Z,-2.1
2018-03-29T03:50:58.825Z,-2.1
2018-03-29T03:51:48.884Z,-2.1
2018-03-29T03:52:38.942Z,-2.1
2018-03-29T03:53:28.980Z,-2.1
2018-03-29T03:54:19.374Z,-2.1
2018-03-29T03:55:09.115Z,-2.1
2018-03-29T03:55:59.421Z,-2.1
2018-03-29T03:56:49.211Z,-2.1
2018-03-29T03:57:39.534Z,-2.1
2018-03-29T03:58:29.334Z,-2.1
2018-03-29T03:59:19.405Z,-2
2018-03-29T04:00:09.721Z,-2
2018-03-29T04:00:59.231Z,-1.9
2018-03-29T04:01:49.869Z,-1.9
2018-03-29T04:02:39.636Z,-1.9
2018-03-29T04:03:29.971Z,-1.9
2018-03-29T04:04:20.052Z,-1.9
2018-03-29T04:05:10.084Z,-1.9
2018-03-29T04:05:59.833Z,-1.9
2018-03-29T04:06:49.914Z,-1.9
2018-03-29T04:07:39.986Z,-1.9
2018-03-29T04:08:30.297Z,-1.9
2018-03-29T04:09:19.805Z,-1.9
2018-03-29T04:10:10.140Z,-1.9
2018-03-29T04:11:00.482Z,-1.9
2018-03-29T04:11:50.528Z,-1.9
2018-03-29T04:12:40.106Z,-1.9
2018-03-29T04:13:30.391Z,-1.9
2018-03-29T04:14:20.161Z,-1.9
2018-03-29T04:15:10.756Z,-2
2018-03-29T04:16:00.545Z,-2.1
2018-03-29T04:16:50.611Z,-2.1
2018-03-29T04:17:40.933Z,-2.2
2018-03-29T04:18:30.713Z,-2.3
2018-03-29T04:19:20.795Z,-2.3
2018-03-29T04:20:10.825Z,-2.4
2018-03-29T04:21:00.923Z,-2.4
2018-03-29T04:21:51.225Z,-2.4
2018-03-29T04:22:40.740Z,-2.4
2018-03-29T04:23:31.108Z,-2.4
2018-03-29T04:24:21.102Z,-2.4
2018-03-29T04:25:11.191Z,-2.4
2018-03-29T04:26:01.518Z,-2.4
2018-03-29T04:26:51.576Z,-2.4
2018-03-29T04:27:41.640Z,-2.3
2018-03-29T04:28:31.420Z,-2.3
2018-03-29T04:29:21.467Z,-2.3
2018-03-29T04:30:11.538Z,-2.3
2018-03-29T04:31:01.321Z,-2.3
2018-03-29T04:31:51.752Z,-2.3
2018-03-29T04:32:41.148Z,-2.2
2018-03-29T04:33:31.806Z,-2.2
2018-03-29T04:34:22.101Z,-2.1
2018-03-29T04:35:11.381Z,-2.1
2018-03-29T04:36:01.181Z,-2.1
2018-03-29T04:36:52.016Z,-2
2018-03-29T04:37:41.478Z,-2
2018-03-29T04:38:32.023Z,-1.9
2018-03-29T04:39:21.651Z,-1.9
2018-03-29T04:40:12.256Z,-1.9
2018-03-29T04:41:01.811Z,-1.9
2018-03-29T04:41:51.795Z,-1.8
2018-03-29T04:42:41.864Z,-1.8
2018-03-29T04:43:31.915Z,-1.8
2018-03-29T04:44:22.340Z,-1.7
2018-03-29T04:45:12.099Z,-1.6
2018-03-29T04:46:02.729Z,-1.6
2018-03-29T04:46:51.941Z,-1.5
2018-03-29T04:47:42.790Z,-1.4
2018-03-29T04:48:31.942Z,-1.4
2018-03-29T04:49:22.907Z,-1.4
2018-03-29T04:50:12.745Z,-1.3
2018-03-29T04:51:01.927Z,-1.3
2018-03-29T04:51:52.273Z,-1.3
2018-03-29T04:52:42.847Z,-1.3
2018-03-29T04:53:33.147Z,-1.2
2018-03-29T04:54:23.242Z,-1.1
2018-03-29T04:55:13.017Z,-1.1
2018-03-29T04:56:03.158Z,-1.1
2018-03-29T04:56:53.713Z,-1
2018-03-29T04:57:42.791Z,-1
2018-03-29T04:58:33.557Z,-1
2018-03-29T05:01:03.719Z,-0.9
2018-03-29T05:01:53.148Z,-0.8
2018-03-29T05:02:43.612Z,-0.8
2018-03-29T05:03:32.894Z,-0.8
2018-03-29T05:04:23.929Z,-0.8
2018-03-29T05:05:13.793Z,-0.8
2018-03-29T05:06:03.466Z,-0.7
2018-03-29T05:06:54.414Z,-0.6
2018-03-29T05:07:43.892Z,-0.6
2018-03-29T05:08:33.734Z,-0.6
2018-03-29T05:09:23.509Z,-0.5
2018-03-29T05:10:14.339Z,-0.5
2018-03-29T05:11:04.223Z,-0.4
2018-03-29T05:11:53.773Z,-0.4
2018-03-29T05:12:44.032Z,-0.4
2018-03-29T05:13:34.553Z,-0.4
2018-03-29T05:14:24.239Z,-0.3
2018-03-29T05:15:14.307Z,-0.3
2018-03-29T05:16:04.339Z,-0.1
2018-03-29T05:16:54.318Z,-0.1
2018-03-29T05:17:44.595Z,-0.1
2018-03-29T05:18:34.518Z,-0.1
2018-03-29T05:19:24.478Z,-0.1
2018-03-29T05:20:14.758Z,0
2018-03-29T05:21:04.872Z,0
2018-03-29T05:21:54.927Z,0.1
2018-03-29T05:22:45.044Z,0.1
2018-03-29T05:23:35.143Z,0.1
2018-03-29T05:24:24.551Z,0.1
2018-03-29T05:25:15.080Z,0.1
2018-03-29T05:26:04.954Z,0.3
2018-03-29T05:26:55.099Z,0.3
2018-03-29T05:27:45.180Z,0.4
2018-03-29T05:28:35.309Z,0.5
2018-03-29T05:29:25.191Z,0.6
2018-03-29T05:30:14.962Z,0.6
2018-03-29T05:31:05.792Z,0.6
2018-03-29T05:31:55.687Z,0.5
2018-03-29T05:32:45.139Z,0.5
2018-03-29T05:33:35.657Z,0.6
2018-03-29T05:34:25.850Z,0.8
2018-03-29T05:35:16.091Z,1.1
2018-03-29T05:36:05.353Z,1.2
2018-03-29T05:36:55.705Z,1.4
2018-03-29T05:37:46.340Z,1.5
2018-03-29T05:38:36.356Z,1.6
2018-03-29T05:39:25.794Z,1.6
2018-03-29T05:40:15.652Z,1.5
2018-03-29T05:41:06.464Z,1.5
2018-03-29T05:41:56.821Z,1.5
2018-03-29T05:42:46.874Z,1.5
2018-03-29T05:43:36.941Z,1.6
2018-03-29T05:44:26.712Z,1.6
2018-03-29T05:45:17.041Z,1.8
2018-03-29T05:46:06.515Z,1.6
2018-03-29T05:46:57.194Z,1.5
2018-03-29T05:47:47.218Z,1.6
2018-03-29T05:48:37.258Z,1.4
2018-03-29T05:49:27.346Z,1.4
2018-03-29T05:50:17.397Z,1.4
2018-03-29T05:51:07.452Z,1.9
2018-03-29T05:51:57.506Z,2.2
2018-03-29T05:52:47.271Z,2.3
2018-03-29T05:53:37.621Z,2.4
2018-03-29T05:54:27.673Z,2.4
2018-03-29T05:55:17.517Z,2.7
2018-03-29T05:56:07.517Z,2.6
2018-03-29T05:56:57.871Z,2.5
2018-03-29T05:57:47.636Z,2.8
2018-03-29T05:58:37.431Z,2.8
2018-03-29T05:59:27.579Z,2.9
2018-03-29T06:00:17.528Z,3.1
2018-03-29T06:01:07.674Z,3.2
2018-03-29T06:01:58.043Z,3.3
2018-03-29T06:02:47.986Z,3.4
2018-03-29T06:03:37.478Z,3.6
2018-03-29T06:04:28.132Z,3.4
2018-03-29T06:05:17.471Z,3.4
2018-03-29T06:06:07.942Z,3.3
2018-03-29T06:06:57.706Z,3.2
2018-03-29T06:07:48.078Z,3.1
2018-03-29T06:08:37.921Z,3.1
2018-03-29T06:09:27.478Z,3.1
2018-03-29T06:10:17.880Z,3.1
2018-03-29T06:11:08.171Z,3.3
2018-03-29T06:11:58.183Z,3.4
2018-03-29T06:12:48.408Z,3.5
2018-03-29T06:13:38.571Z,3.8
2018-03-29T06:14:28.643Z,4.1
2018-03-29T06:15:18.588Z,3.9
2018-03-29T06:16:08.128Z,3.9
2018-03-29T06:16:58.834Z,3.9
2018-03-29T06:17:49.259Z,4.1
2018-03-29T06:18:39.121Z,3.9
2018-03-29T06:19:28.690Z,4.3
2018-03-29T06:20:19.535Z,3.8
2018-03-29T06:21:08.592Z,3.6
2018-03-29T06:21:59.165Z,3.9
2018-03-29T06:22:49.397Z,3.9
2018-03-29T06:23:38.975Z,4
2018-03-29T06:24:29.225Z,3.9
2018-03-29T06:25:19.607Z,4.1
2018-03-29T06:26:09.052Z,4.4
2018-03-29T06:26:59.404Z,4.5
2018-03-29T06:27:49.545Z,4.6
2018-03-29T06:28:39.818Z,4.7
2018-03-29T06:29:29.880Z,4.6
2018-03-29T06:30:19.974Z,4.7
2018-03-29T06:31:09.987Z,4.6
2018-03-29T06:31:59.635Z,4.9
2018-03-29T06:32:49.526Z,5.2
2018-03-29T06:33:39.863Z,5.3
2018-03-29T06:34:29.939Z,5.4
2018-03-29T06:35:20.593Z,5.6
2018-03-29T06:36:10.351Z,5.6
2018-03-29T06:37:00.091Z,5.5
2018-03-29T06:37:50.159Z,5.3
2018-03-29T06:38:40.342Z,5.3
2018-03-29T06:39:30.358Z,5.3
2018-03-29T06:40:20.354Z,5.4
2018-03-29T06:41:10.406Z,5.3
2018-03-29T06:41:59.961Z,5.3
2018-03-29T06:42:51.077Z,5.4
2018-03-29T06:43:40.874Z,5.2
2018-03-29T06:44:31.258Z,5.3
2018-03-29T06:45:21.274Z,5.2
2018-03-29T06:46:11.348Z,5.5
2018-03-29T06:47:00.894Z,5.7
2018-03-29T06:47:51.161Z,5.4
2018-03-29T06:48:40.916Z,5.4
2018-03-29T06:49:30.412Z,5.7
2018-03-29T06:50:21.333Z,5.9
2018-03-29T06:51:10.901Z,5.8
2018-03-29T06:52:01.435Z,5.4
2018-03-29T06:52:51.107Z,5.2
2018-03-29T06:53:41.278Z,5.2
2018-03-29T06:54:31.128Z,5.1
2018-03-29T06:55:21.481Z,5.2
2018-03-29T06:56:11.551Z,5.4
2018-03-29T06:57:01.497Z,5.6
2018-03-29T06:57:51.673Z,5.7
2018-03-29T06:58:42.211Z,5.8
2018-03-29T06:59:31.978Z,6
2018-03-29T07:00:22.143Z,5.9
2018-03-29T07:01:11.404Z,6
2018-03-29T07:02:01.483Z,5.9
2018-03-29T07:02:51.420Z,6.1
2018-03-29T07:03:41.798Z,6.1
2018-03-29T07:04:31.549Z,5.9
2018-03-29T07:05:22.182Z,5.8
2018-03-29T07:06:12.228Z,5.4
2018-03-29T07:07:01.935Z,5.4
2018-03-29T07:07:52.812Z,5.9
2018-03-29T07:08:42.343Z,6.4
2018-03-29T07:09:32.282Z,6.6
2018-03-29T07:10:21.885Z,6.1
2018-03-29T07:11:12.196Z,5.9
2018-03-29T07:12:03.189Z,6.2
2018-03-29T07:12:52.935Z,6.4
2018-03-29T07:13:42.499Z,6.5
2018-03-29T07:14:31.762Z,6.8
2018-03-29T07:15:22.832Z,7.1
2018-03-29T07:16:13.139Z,7.3
2018-03-29T07:17:03.255Z,6.9
2018-03-29T07:17:53.286Z,7.1
2018-03-29T07:18:43.046Z,6.9
2018-03-29T07:19:33.197Z,6.6
2018-03-29T07:20:22.694Z,6.3
2018-03-29T07:21:13.346Z,5.9
2018-03-29T07:22:03.593Z,6.2
2018-03-29T07:22:53.157Z,6.4
2018-03-29T07:23:43.000Z,6.9
2018-03-29T07:24:33.456Z,7.3
2018-03-29T07:25:23.399Z,7.6
2018-03-29T07:26:13.559Z,7.6
2018-03-29T07:27:03.670Z,8
2018-03-29T07:27:53.009Z,7.8
2018-03-29T07:28:44.063Z,7.8
2018-03-29T07:29:34.388Z,7.8
2018-03-29T07:30:23.914Z,7.8
2018-03-29T07:31:14.048Z,7.6
2018-03-29T07:32:04.006Z,7.7
2018-03-29T07:32:54.110Z,7.6
2018-03-29T07:33:43.623Z,7.6
2018-03-29T07:34:34.070Z,7.3
2018-03-29T07:35:23.951Z,7.6
2018-03-29T07:36:14.296Z,7.6
2018-03-29T07:37:04.183Z,7.5
2018-03-29T07:37:54.716Z,7.6
2018-03-29T07:38:44.785Z,7.9
2018-03-29T07:39:34.555Z,8.4
2018-03-29T07:40:24.900Z,8.1
2018-03-29T07:41:14.256Z,7.8
2018-03-29T07:42:04.293Z,8.1
2018-03-29T07:42:54.869Z,8.4
2018-03-29T07:43:45.005Z,8.5
2018-03-29T07:44:34.320Z,8.7
2018-03-29T07:45:25.528Z,8.5
2018-03-29T07:46:14.835Z,8.6
2018-03-29T07:47:05.174Z,8.6
2018-03-29T07:47:55.135Z,8.8
2018-03-29T07:48:45.495Z,8.9
2018-03-29T07:49:35.267Z,8.8
2018-03-29T07:50:25.620Z,9
2018-03-29T07:51:15.090Z,8.8
2018-03-29T07:52:05.449Z,8.9
2018-03-29T07:52:55.304Z,8.9
2018-03-29T07:53:45.849Z,9.1
2018-03-29T07:54:34.642Z,8.9
2018-03-29T07:55:26.265Z,9.4
2018-03-29T07:56:16.052Z,9.7
2018-03-29T07:57:05.814Z,9.9
2018-03-29T07:57:55.747Z,9.6
2018-03-29T07:58:45.943Z,9.6
2018-03-29T07:59:35.596Z,9.6
2018-03-29T08:00:26.424Z,9.8
2018-03-29T08:01:16.089Z,10.1
2018-03-29T08:02:05.686Z,10.3
2018-03-29T08:02:55.957Z,9.5
2018-03-29T08:03:46.381Z,9.3
2018-03-29T08:04:36.080Z,9.8
2018-03-29T08:05:26.506Z,10.1
2018-03-29T08:06:16.175Z,10.1
2018-03-29T08:07:06.522Z,10.3
2018-03-29T08:07:56.293Z,10.1
2018-03-29T08:08:46.762Z,10.3
2018-03-29T08:09:36.513Z,10.6
2018-03-29T08:10:26.881Z,10.7
2018-03-29T08:11:16.832Z,10.6
2018-03-29T08:12:06.892Z,10.6
2018-03-29T08:12:56.776Z,10.8
2018-03-29T08:13:47.116Z,10.6
2018-03-29T08:14:37.088Z,10.6
2018-03-29T08:15:26.943Z,10.8
2018-03-29T08:16:16.815Z,10.7
2018-03-29T08:17:07.659Z,10.9
2018-03-29T08:17:57.431Z,10.9
2018-03-29T08:18:47.276Z,11.1
2018-03-29T08:19:37.260Z,11.3
2018-03-29T08:20:27.404Z,11.7
2018-03-29T08:21:17.383Z,11.4
2018-03-29T08:22:07.458Z,11.3
2018-03-29T08:22:57.694Z,11.4
2018-03-29T08:23:47.567Z,11.5
2018-03-29T08:24:37.609Z,11.4
2018-03-29T08:25:27.979Z,11.6
2018-03-29T08:26:17.821Z,11.8
2018-03-29T08:27:07.708Z,11.7
2018-03-29T08:27:57.767Z,11.6
2018-03-29T08:28:47.822Z,11.7
2018-03-29T08:29:38.473Z,11.4
2018-03-29T08:30:28.340Z,10.8
2018-03-29T08:31:17.983Z,10.9
2018-03-29T08:32:07.773Z,10.7
2018-03-29T08:32:57.937Z,10.4
2018-03-29T08:33:47.701Z,10.8
2018-03-29T08:34:38.647Z,11.2
2018-03-29T08:35:28.414Z,11.3
2018-03-29T08:36:18.570Z,11.5
2018-03-29T08:37:09.060Z,12
2018-03-29T08:37:58.782Z,11.7
2018-03-29T08:38:48.411Z,11.2
2018-03-29T08:39:38.513Z,11.3
2018-03-29T08:40:29.265Z,11.9
2018-03-29T08:41:18.337Z,12.1
2018-03-29T08:42:08.609Z,12.3
2018-03-29T08:42:58.760Z,12.6
2018-03-29T08:43:48.735Z,12.9
2018-03-29T08:44:39.396Z,13.1
2018-03-29T08:45:28.443Z,13.1
2018-03-29T08:46:19.004Z,12.6
2018-03-29T08:47:08.682Z,12.6
2018-03-29T08:47:59.037Z,12.4
2018-03-29T08:48:49.885Z,12.6
2018-03-29T08:49:39.431Z,12.7
2018-03-29T08:50:29.103Z,12.7
2018-03-29T08:51:19.790Z,12.7
2018-03-29T08:52:09.841Z,12.8
2018-03-29T08:53:00.149Z,12.8
2018-03-29T08:53:50.333Z,13.3
2018-03-29T08:54:39.926Z,13.3
2018-03-29T08:55:30.340Z,13.2
2018-03-29T08:56:19.816Z,13.3
2018-03-29T08:57:10.195Z,13.3
2018-03-29T08:58:00.242Z,13.6
2018-03-29T08:58:50.300Z,13.4
2018-03-29T08:59:40.381Z,13.7
2018-03-29T09:00:30.993Z,13.8
2018-03-29T09:01:20.770Z,13.7
2018-03-29T09:02:10.565Z,13.2
2018-03-29T09:03:00.466Z,13
2018-03-29T09:03:50.200Z,13.3
2018-03-29T09:04:41.020Z,13.4
2018-03-29T09:05:31.413Z,13.4
2018-03-29T09:06:20.865Z,13.4
2018-03-29T09:07:11.205Z,13.4
2018-03-29T09:08:00.700Z,13.6
2018-03-29T09:08:51.453Z,13.2
2018-03-29T09:09:40.716Z,12.7
2018-03-29T09:10:31.182Z,12.2
2018-03-29T09:11:21.516Z,12.3
2018-03-29T09:12:10.997Z,12.9
2018-03-29T09:13:01.731Z,13.3
2018-03-29T09:13:51.122Z,13.3
2018-03-29T09:14:41.749Z,13.4
2018-03-29T09:15:31.647Z,13.7
2018-03-29T09:16:21.896Z,13.6
2018-03-29T09:17:11.359Z,13.6
2018-03-29T09:18:01.792Z,13.8
2018-03-29T09:18:51.367Z,13.9
2018-03-29T09:19:41.526Z,14.1
2018-03-29T09:20:31.914Z,14.2
2018-03-29T09:21:21.459Z,14.2
2018-03-29T09:22:12.305Z,13.8
2018-03-29T09:23:02.351Z,14.1
2018-03-29T09:23:51.920Z,14.5
2018-03-29T09:24:41.981Z,14.8
2018-03-29T09:25:32.301Z,14.9
2018-03-29T09:26:22.400Z,15.1
2018-03-29T09:27:12.418Z,15
2018-03-29T09:28:02.430Z,15.1
2018-03-29T09:28:51.725Z,15.2
2018-03-29T09:29:41.961Z,15.1
2018-03-29T09:30:32.711Z,14.8
2018-03-29T09:31:22.480Z,14.8
2018-03-29T09:32:12.045Z,14.5
2018-03-29T09:33:02.310Z,14.4
2018-03-29T09:33:52.265Z,14.4
2018-03-29T09:34:42.433Z,14
2018-03-29T09:35:31.900Z,14.1
2018-03-29T09:36:22.562Z,14.6
2018-03-29T09:37:12.626Z,14.8
2018-03-29T09:38:03.264Z,14.8
2018-03-29T09:38:53.503Z,14.9
2018-03-29T09:39:43.379Z,14.8
2018-03-29T09:40:33.347Z,14.8
2018-03-29T09:41:23.701Z,14.9
2018-03-29T09:42:13.456Z,15.3
2018-03-29T09:43:03.810Z,15.3
2018-03-29T09:43:53.669Z,15.9
2018-03-29T09:44:43.354Z,16.3
2018-03-29T09:45:33.409Z,15.8
2018-03-29T09:46:23.773Z,15.8
2018-03-29T09:47:13.989Z,15.8
2018-03-29T09:48:03.504Z,15.6
2018-03-29T09:48:54.257Z,15.6
2018-03-29T09:49:44.007Z,15.7
2018-03-29T09:50:34.672Z,15.8
2018-03-29T09:51:24.027Z,16
2018-03-29T09:52:14.009Z,16.1
2018-03-29T09:53:04.072Z,16
2018-03-29T09:53:54.319Z,16.1
2018-03-29T09:54:44.179Z,16.4
2018-03-29T09:55:34.481Z,16.8
2018-03-29T09:56:24.375Z,16.9
2018-03-29T09:57:14.394Z,17.3
2018-03-29T09:58:04.226Z,17.1
2018-03-29T09:58:54.776Z,16.7
2018-03-29T09:59:44.471Z,16.5
2018-03-29T10:00:34.534Z,16
2018-03-29T10:01:24.884Z,16.1
2018-03-29T10:02:14.938Z,16.1
2018-03-29T10:03:04.216Z,15.5
2018-03-29T10:03:55.372Z,15.2
2018-03-29T10:04:45.115Z,15.4
2018-03-29T10:05:35.578Z,15.8
2018-03-29T10:06:25.327Z,15.6
2018-03-29T10:07:14.603Z,15.9
2018-03-29T10:08:05.168Z,16.3
2018-03-29T10:08:55.448Z,16.8
2018-03-29T10:09:45.308Z,16.9
2018-03-29T10:10:34.866Z,16.9
2018-03-29T10:11:25.119Z,16.9
2018-03-29T10:13:05.253Z,16.8
2018-03-29T10:13:55.595Z,16.5
2018-03-29T10:14:45.679Z,16.4
2018-03-29T10:15:35.438Z,16.9
2018-03-29T10:16:25.511Z,16.9
2018-03-29T10:17:15.838Z,17.1
2018-03-29T10:18:05.611Z,17.3
2018-03-29T10:18:55.828Z,17.3
2018-03-29T10:19:45.533Z,16.5
2018-03-29T10:20:35.591Z,16.3
2018-03-29T10:21:25.575Z,16.7
2018-03-29T10:22:16.315Z,17.2
2018-03-29T10:23:05.700Z,17.1
2018-03-29T10:23:56.360Z,17.5
2018-03-29T10:24:45.830Z,17.9
2018-03-29T10:25:35.985Z,17.7
2018-03-29T10:26:26.137Z,17.9
2018-03-29T10:27:16.310Z,17.8
2018-03-29T10:28:06.336Z,17.1
2018-03-29T10:28:56.700Z,16.8
2018-03-29T10:29:46.475Z,16.6
2018-03-29T10:30:36.231Z,16.3
2018-03-29T10:31:26.603Z,16.1
2018-03-29T10:32:16.713Z,15.3
2018-03-29T10:33:07.022Z,15.5
2018-03-29T10:33:56.566Z,16.1
2018-03-29T10:34:47.147Z,16.7
2018-03-29T10:35:36.611Z,17.1
2018-03-29T10:36:26.964Z,16.8
2018-03-29T10:37:17.354Z,16.4
2018-03-29T10:38:07.672Z,16.1
2018-03-29T10:38:56.661Z,16.5
2018-03-29T10:39:47.818Z,16.8
2018-03-29T10:40:37.576Z,17.5
2018-03-29T10:41:27.332Z,17.6
2018-03-29T10:42:17.496Z,17.5
2018-03-29T10:43:07.753Z,17.5
2018-03-29T10:43:58.096Z,17.8
2018-03-29T10:44:47.654Z,18.3
2018-03-29T10:45:38.022Z,18.1
2018-03-29T10:46:27.993Z,17.9
2018-03-29T10:47:17.861Z,17.5
2018-03-29T10:48:07.632Z,16.5
2018-03-29T10:48:58.449Z,17.4
2018-03-29T10:49:47.654Z,17.7
2018-03-29T10:50:38.001Z,18.1
2018-03-29T10:51:27.761Z,18.1
2018-03-29T10:52:18.421Z,18.1
2018-03-29T10:53:08.180Z,17.4
2018-03-29T10:54:48.395Z,16.8
2018-03-29T10:55:38.366Z,16.9
2018-03-29T10:56:28.718Z,17.3
2018-03-29T10:57:18.178Z,17.7
2018-03-29T10:58:08.871Z,17.6
2018-03-29T10:58:58.890Z,17.1
2018-03-29T10:59:48.378Z,17.5
2018-03-29T11:00:38.345Z,17.9
2018-03-29T11:01:29.370Z,17.9
2018-03-29T11:02:19.131Z,18
2018-03-29T11:03:09.535Z,18.2
2018-03-29T11:03:58.975Z,18.6
2018-03-29T11:04:49.036Z,18.8
2018-03-29T11:05:39.110Z,18.6
2018-03-29T11:07:19.225Z,18.9
2018-03-29T11:08:59.953Z,17.6
2018-03-29T11:09:49.702Z,16.8
2018-03-29T11:10:39.264Z,16.7
2018-03-29T11:11:29.913Z,16.9
2018-03-29T11:12:19.877Z,17.9
2018-03-29T11:13:09.977Z,18.1
2018-03-29T11:14:00.080Z,18.4
2018-03-29T11:14:49.879Z,18.6
2018-03-29T11:16:30.192Z,18.8
2018-03-29T11:17:20.269Z,19.2
2018-03-29T11:18:10.110Z,18.9
2018-03-29T11:19:00.467Z,18.6
2018-03-29T11:19:49.739Z,18.6
2018-03-29T11:20:40.479Z,18.9
2018-03-29T11:21:30.553Z,19.1
2018-03-29T11:22:20.912Z,18.9
2018-03-29T11:24:01.029Z,18.8
2018-03-29T11:24:50.791Z,18.1
2018-03-29T11:25:40.823Z,17.3
2018-03-29T11:26:31.189Z,17.6
2018-03-29T11:27:21.267Z,18.1
2018-03-29T11:28:11.324Z,18.4
2018-03-29T11:29:00.807Z,18.9
2018-03-29T11:29:51.471Z,19.2
2018-03-29T11:30:41.505Z,19.3
2018-03-29T11:31:31.561Z,19
2018-03-29T11:32:21.620Z,18.8
2018-03-29T11:33:11.686Z,18.8
2018-03-29T11:34:01.761Z,18.6
2018-03-29T11:34:51.549Z,18.9
2018-03-29T11:35:41.391Z,19